Time;durP1;ratioP1;P1;durP2;ratioP2;P2;SDS_P1;SDS_P2;PMS_P1;PMS_P2;Temp;Humidity;BMP_temperature;BMP_pressure;BME280_temperature;BME280_humidity;BME280_pressure;Samples;Min_cycle;Max_cycle;Signal;HPM_P1;HPM_P2
2022/04/11 00:01:30;;;;;;;1.98;1.48;;;3.10;99.90;;;;;;7374120;19;20347;-67
2022/04/11 00:03:56;;;;;;;3.67;1.70;;;3.10;99.90;;;;;;7374741;19;20348;-66
2022/04/11 00:06:22;;;;;;;3.73;1.67;;;3.10;99.90;;;;;;7375208;19;20317;-67
2022/04/11 00:08:48;;;;;;;3.40;1.70;;;3.10;99.90;;;;;;7376010;19;20383;-66
2022/04/11 00:11:13;;;;;;;5.03;1.90;;;3.10;99.90;;;;;;7374282;19;20305;-67
2022/04/11 00:13:39;;;;;;;3.58;1.80;;;3.10;99.90;;;;;;7373314;19;20340;-66
2022/04/11 00:16:08;;;;;;;2.57;1.50;;;3.00;99.90;;;;;;7375570;19;21191;-66
2022/04/11 00:18:34;;;;;;;2.28;1.50;;;3.00;99.90;;;;;;7373668;19;20309;-66
2022/04/11 00:21:00;;;;;;;1.90;1.70;;;3.00;99.90;;;;;;7374495;19;20376;-66
2022/04/11 00:23:26;;;;;;;2.47;1.50;;;3.10;99.90;;;;;;7378815;19;20313;-66
2022/04/11 00:25:52;;;;;;;2.50;1.53;;;3.10;99.90;;;;;;7377107;19;20325;-68
2022/04/11 00:28:18;;;;;;;2.80;2.00;;;3.10;99.90;;;;;;7375856;19;22240;-67
2022/04/11 00:30:44;;;;;;;3.85;1.63;;;3.10;99.90;;;;;;7350099;19;20788;-67
2022/04/11 00:33:10;;;;;;;2.25;1.40;;;3.10;99.90;;;;;;7373722;19;20312;-66
2022/04/11 00:35:36;;;;;;;3.67;1.60;;;3.10;99.90;;;;;;7372259;19;20340;-66
2022/04/11 00:38:05;;;;;;;2.73;1.63;;;3.20;99.90;;;;;;7371052;19;20383;-67
2022/04/11 00:40:31;;;;;;;2.78;1.63;;;3.20;99.90;;;;;;7375505;19;20679;-66
2022/04/11 00:42:56;;;;;;;1.50;1.40;;;3.20;99.90;;;;;;7384043;19;20332;-66
2022/04/11 00:45:22;;;;;;;3.47;1.50;;;3.20;99.90;;;;;;7379511;19;20338;-66
2022/04/11 00:47:48;;;;;;;3.60;1.73;;;3.20;99.90;;;;;;7383028;19;20676;-65
2022/04/11 00:50:14;;;;;;;2.80;1.60;;;3.20;99.90;;;;;;7382573;19;20340;-66
2022/04/11 00:52:45;;;;;;;4.00;1.77;;;3.20;99.90;;;;;;7380793;19;20671;-67
2022/04/11 00:55:13;;;;;;;1.35;1.25;;;3.20;99.90;;;;;;7372897;19;20312;-66
2022/04/11 00:57:39;;;;;;;2.50;1.20;;;3.20;99.90;;;;;;7376620;19;20364;-66
2022/04/11 01:00:07;;;;;;;3.13;1.58;;;3.20;99.90;;;;;;7378859;19;20370;-67
2022/04/11 01:02:34;;;;;;;1.52;1.40;;;3.20;99.90;;;;;;7377153;19;20681;-66
2022/04/11 01:04:59;;;;;;;2.03;1.70;;;3.20;99.90;;;;;;7383930;19;20337;-67
2022/04/11 01:07:32;;;;;;;4.70;1.40;;;3.10;99.90;;;;;;7374556;19;22638;-66
2022/04/11 01:10:00;;;;;;;4.30;1.40;;;3.10;99.90;;;;;;7384201;19;20653;-66
2022/04/11 01:12:28;;;;;;;4.05;1.58;;;3.10;99.90;;;;;;7373288;19;20313;-67
2022/04/11 01:14:53;;;;;;;4.25;1.58;;;3.10;99.90;;;;;;7376353;19;20344;-67
2022/04/11 01:17:19;;;;;;;4.20;1.58;;;3.10;99.90;;;;;;7379971;19;20308;-67
2022/04/11 01:19:45;;;;;;;2.20;1.40;;;3.10;99.90;;;;;;7383287;19;20327;-67
2022/04/11 01:22:12;;;;;;;3.67;1.70;;;3.10;99.90;;;;;;7373791;19;21146;-66
2022/04/11 01:24:39;;;;;;;1.65;1.50;;;3.10;99.90;;;;;;7378622;19;20324;-67
2022/04/11 01:27:04;;;;;;;2.30;1.70;;;3.00;99.90;;;;;;7379020;19;20724;-67
2022/04/11 01:29:31;;;;;;;2.30;1.60;;;3.00;99.90;;;;;;7382351;19;20333;-66
2022/04/11 01:31:57;;;;;;;1.80;1.60;;;3.00;99.90;;;;;;7377326;19;20312;-67
2022/04/11 01:34:23;;;;;;;3.30;1.50;;;3.00;99.90;;;;;;7378807;19;20929;-67
2022/04/11 01:36:49;;;;;;;1.55;1.45;;;3.00;99.90;;;;;;7377489;19;20329;-67
2022/04/11 01:39:15;;;;;;;6.10;1.83;;;3.00;99.90;;;;;;7379531;19;20316;-67
2022/04/11 01:41:40;;;;;;;2.63;1.70;;;3.00;99.90;;;;;;7377638;19;20751;-67
2022/04/11 01:44:07;;;;;;;3.85;1.75;;;3.00;99.90;;;;;;7379516;19;20340;-66
2022/04/11 01:46:33;;;;;;;2.05;1.52;;;3.00;99.90;;;;;;7377587;19;20974;-66
2022/04/11 01:49:08;;;;;;;1.73;1.48;;;3.00;99.90;;;;;;7377236;19;20803;-67
2022/04/11 01:51:33;;;;;;;2.87;1.80;;;3.00;99.90;;;;;;7374498;19;20376;-68
2022/04/11 01:53:59;;;;;;;4.35;1.80;;;3.00;99.90;;;;;;7376707;19;20753;-67
2022/04/11 01:56:26;;;;;;;3.13;1.75;;;2.90;99.90;;;;;;7377118;19;20341;-67
2022/04/11 01:58:52;;;;;;;1.83;1.50;;;2.90;99.90;;;;;;7379122;19;20369;-68
2022/04/11 02:01:18;;;;;;;1.50;1.40;;;2.90;99.90;;;;;;7375879;19;20293;-67
2022/04/11 02:03:45;;;;;;;1.60;1.50;;;2.90;99.90;;;;;;7378771;19;20351;-67
2022/04/11 02:06:10;;;;;;;3.90;1.63;;;2.90;99.90;;;;;;7377639;19;21182;-66
2022/04/11 02:08:36;;;;;;;2.67;1.40;;;2.80;99.90;;;;;;7380098;19;20344;-66
2022/04/11 02:11:08;;;;;;;1.60;1.40;;;2.80;99.90;;;;;;7376642;19;20336;-66
2022/04/11 02:13:33;;;;;;;3.35;1.50;;;2.80;99.90;;;;;;7376276;19;20329;-67
2022/04/11 02:15:59;;;;;;;3.08;1.70;;;2.70;99.90;;;;;;7378924;19;20297;-67
2022/04/11 02:18:25;;;;;;;1.43;1.33;;;2.60;99.90;;;;;;7376233;19;20340;-66
2022/04/11 02:20:51;;;;;;;3.00;1.70;;;2.60;99.90;;;;;;7379670;19;20448;-66
2022/04/11 02:23:16;;;;;;;2.35;1.60;;;2.50;99.90;;;;;;7377775;19;20321;-66
2022/04/11 02:25:42;;;;;;;2.40;1.55;;;2.50;99.90;;;;;;7374898;19;20355;-67
2022/04/11 02:28:09;;;;;;;2.47;1.60;;;2.50;99.90;;;;;;7379712;19;20341;-67
2022/04/11 02:30:35;;;;;;;2.85;1.85;;;2.50;99.90;;;;;;7375674;19;20329;-66
2022/04/11 02:33:00;;;;;;;4.50;1.85;;;2.50;99.90;;;;;;7380680;19;20348;-66
2022/04/11 02:35:28;;;;;;;3.90;1.80;;;2.50;99.90;;;;;;7377195;19;21098;-66
2022/04/11 02:37:54;;;;;;;3.13;1.90;;;2.40;99.90;;;;;;7377087;19;20398;-66
2022/04/11 02:40:21;;;;;;;2.47;1.80;;;2.40;99.90;;;;;;7377170;19;20349;-66
2022/04/11 02:43:06;;;;;;;3.03;1.85;;;2.40;99.90;;;;;;7375215;19;20893;-67
2022/04/11 02:45:34;;;;;;;2.45;1.80;;;2.40;99.90;;;;;;7375479;19;20344;-68
2022/04/11 02:48:00;;;;;;;3.07;1.80;;;2.40;99.90;;;;;;7380566;19;20326;-67
2022/04/11 02:50:27;;;;;;;4.07;1.90;;;2.30;99.90;;;;;;7377861;19;20360;-69
2022/04/11 02:53:03;;;;;;;3.35;2.05;;;2.30;99.90;;;;;;7386633;19;20344;-67
2022/04/11 02:55:29;;;;;;;2.53;2.08;;;2.30;99.90;;;;;;7378517;19;20341;-66
2022/04/11 02:57:56;;;;;;;3.83;2.10;;;2.20;99.90;;;;;;7378219;19;20349;-66
2022/04/11 03:00:22;;;;;;;3.47;2.27;;;2.20;99.90;;;;;;7373714;19;20344;-67
2022/04/11 03:02:53;;;;;;;2.13;1.92;;;2.20;99.90;;;;;;7378068;19;20345;-66
2022/04/11 03:05:21;;;;;;;3.03;2.13;;;2.20;99.90;;;;;;7372989;19;20349;-66
2022/04/11 03:07:48;;;;;;;2.00;1.80;;;2.10;99.90;;;;;;7378533;19;20447;-67
2022/04/11 03:10:15;;;;;;;2.42;2.03;;;2.10;99.90;;;;;;7374324;19;20341;-66
2022/04/11 03:12:41;;;;;;;5.18;2.35;;;2.10;99.90;;;;;;7368931;19;20336;-67
2022/04/11 03:15:09;;;;;;;5.00;2.33;;;2.00;99.90;;;;;;7376144;19;20347;-66
2022/04/11 03:17:35;;;;;;;3.83;2.08;;;2.00;99.90;;;;;;7377741;19;20328;-66
2022/04/11 03:20:02;;;;;;;3.10;2.20;;;2.00;99.90;;;;;;7377921;19;20388;-66
2022/04/11 03:22:29;;;;;;;3.23;2.10;;;1.90;99.90;;;;;;7376024;19;20308;-67
2022/04/11 03:25:01;;;;;;;3.90;2.45;;;2.00;99.90;;;;;;7375024;19;20327;-67
2022/04/11 03:27:27;;;;;;;3.03;2.10;;;2.00;99.90;;;;;;7376715;19;20293;-66
2022/04/11 03:29:54;;;;;;;2.30;1.95;;;2.00;99.90;;;;;;7372367;19;20349;-66
2022/04/11 03:32:21;;;;;;;2.70;2.20;;;1.90;99.90;;;;;;7376379;19;20644;-65
2022/04/11 03:34:47;;;;;;;3.03;2.20;;;1.90;99.90;;;;;;7376752;19;20338;-67
2022/04/11 03:37:13;;;;;;;2.90;2.00;;;1.80;99.90;;;;;;7376921;19;20692;-66
2022/04/11 03:39:46;;;;;;;3.03;2.25;;;1.80;99.90;;;;;;7378444;19;20408;-66
2022/04/11 03:42:12;;;;;;;3.38;2.05;;;1.80;99.90;;;;;;7376027;19;20415;-67
2022/04/11 03:44:37;;;;;;;3.50;2.28;;;1.80;99.90;;;;;;7374795;19;20312;-67
2022/04/11 03:47:10;;;;;;;3.30;1.90;;;1.70;99.90;;;;;;7373871;19;20911;-67
2022/04/11 03:49:35;;;;;;;2.33;2.00;;;1.60;99.90;;;;;;7375249;19;20333;-67
2022/04/11 03:52:10;;;;;;;1.98;1.88;;;1.60;99.90;;;;;;7376780;19;20681;-67
2022/04/11 03:54:37;;;;;;;4.13;2.30;;;1.60;99.90;;;;;;7374205;19;20336;-67
2022/04/11 03:57:06;;;;;;;2.67;2.30;;;1.60;99.90;;;;;;7355432;19;20735;-67
2022/04/11 03:59:34;;;;;;;2.92;2.03;;;1.60;99.90;;;;;;7351770;19;20323;-67
2022/04/11 04:02:00;;;;;;;3.15;2.47;;;1.60;99.90;;;;;;7373760;19;21790;-66
2022/04/11 04:04:26;;;;;;;4.28;2.67;;;1.60;99.90;;;;;;7372832;19;20329;-67
2022/04/11 04:06:52;;;;;;;2.90;2.13;;;1.50;99.90;;;;;;7375818;19;20319;-66
2022/04/11 04:09:19;;;;;;;3.53;2.30;;;1.60;99.90;;;;;;7374711;19;21189;-67
2022/04/11 04:11:45;;;;;;;3.50;1.98;;;1.50;99.90;;;;;;7373190;19;21010;-67
2022/04/11 04:14:21;;;;;;;3.17;2.10;;;1.40;99.90;;;;;;7372812;19;20638;-67
2022/04/11 04:16:51;;;;;;;3.97;2.40;;;1.40;99.90;;;;;;7380484;19;20300;-66
2022/04/11 04:19:22;;;;;;;5.30;2.20;;;1.40;99.90;;;;;;7279720;19;2004326;-66
2022/04/11 04:21:49;;;;;;;4.90;2.40;;;1.30;99.90;;;;;;7378304;19;20733;-67
2022/04/11 04:24:16;;;;;;;3.78;2.40;;;1.30;99.90;;;;;;7383219;19;20305;-67
2022/04/11 04:26:42;;;;;;;3.20;2.38;;;1.30;99.90;;;;;;7383981;19;21206;-66
2022/04/11 04:29:10;;;;;;;3.78;2.47;;;1.20;99.90;;;;;;7380956;19;20316;-66
2022/04/11 04:31:40;;;;;;;2.55;2.08;;;1.20;99.90;;;;;;7380082;19;20321;-67
2022/04/11 04:34:06;;;;;;;4.57;2.80;;;1.20;99.90;;;;;;7379142;19;20847;-67
2022/04/11 04:36:32;;;;;;;3.20;2.90;;;1.20;99.90;;;;;;7379010;19;20982;-67
2022/04/11 04:39:02;;;;;;;6.60;3.30;;;1.20;99.90;;;;;;7381588;19;20308;-67
2022/04/11 04:41:29;;;;;;;5.65;3.13;;;1.20;99.90;;;;;;7385018;19;20308;-69
2022/04/11 04:43:55;;;;;;;3.30;2.45;;;1.10;99.90;;;;;;7385778;19;20333;-70
2022/04/11 04:46:21;;;;;;;4.95;2.67;;;1.10;99.90;;;;;;7381790;19;20401;-70
2022/04/11 04:48:51;;;;;;;2.60;2.40;;;1.10;99.90;;;;;;7383086;19;21185;-70
2022/04/11 04:51:18;;;;;;;5.10;2.75;;;1.10;99.90;;;;;;7381041;19;20324;-69
2022/04/11 04:53:50;;;;;;;4.00;2.30;;;1.10;99.90;;;;;;7380303;19;20313;-70
2022/04/11 04:56:16;;;;;;;3.25;2.50;;;1.20;99.90;;;;;;7383964;19;20375;-70
2022/04/11 04:58:45;;;;;;;2.42;2.10;;;1.20;99.90;;;;;;7384857;19;20966;-70
2022/04/11 05:01:14;;;;;;;2.42;2.15;;;1.20;99.90;;;;;;7378188;19;20362;-70
2022/04/11 05:03:41;;;;;;;3.10;2.50;;;1.30;99.90;;;;;;7381607;19;20309;-70
2022/04/11 05:06:08;;;;;;;5.70;3.00;;;1.30;99.90;;;;;;7380617;19;20791;-70
2022/04/11 05:08:35;;;;;;;3.03;2.38;;;1.30;99.90;;;;;;7381551;19;20331;-71
2022/04/11 05:11:01;;;;;;;3.97;2.30;;;1.40;99.90;;;;;;7378299;19;20941;-71
2022/04/11 05:13:27;;;;;;;3.58;2.53;;;1.40;99.90;;;;;;7380796;19;20325;-71
2022/04/11 05:15:54;;;;;;;3.35;2.38;;;1.50;99.90;;;;;;7380634;19;20418;-70
2022/04/11 05:18:25;;;;;;;3.43;2.43;;;1.50;99.90;;;;;;7380287;19;20655;-71
2022/04/11 05:20:51;;;;;;;3.67;2.80;;;1.50;99.90;;;;;;7376548;19;20324;-71
2022/04/11 05:23:19;;;;;;;3.45;2.58;;;1.50;99.90;;;;;;7367111;19;20312;-71
2022/04/11 05:25:45;;;;;;;5.10;2.78;;;1.60;99.90;;;;;;7379062;19;20348;-70
2022/04/11 05:28:11;;;;;;;3.13;2.83;;;1.60;99.90;;;;;;7379789;19;20314;-70
2022/04/11 05:30:42;;;;;;;4.20;2.55;;;1.60;99.90;;;;;;7377578;19;21183;-70
2022/04/11 05:33:08;;;;;;;4.00;2.70;;;1.60;99.90;;;;;;7380874;19;20304;-70
2022/04/11 05:35:35;;;;;;;2.45;2.15;;;1.60;99.90;;;;;;7379549;19;20309;-70
2022/04/11 05:38:07;;;;;;;5.00;2.72;;;1.70;99.90;;;;;;7382017;19;20297;-70
2022/04/11 05:40:33;;;;;;;7.82;3.63;;;1.70;99.90;;;;;;7377747;19;20320;-70
2022/04/11 05:43:01;;;;;;;3.72;3.03;;;1.80;99.90;;;;;;7379991;19;20300;-70
2022/04/11 05:45:27;;;;;;;5.00;2.85;;;2.00;99.90;;;;;;7380471;19;20301;-71
2022/04/11 05:47:53;;;;;;;4.40;2.45;;;2.00;99.90;;;;;;7382109;19;20321;-71
2022/04/11 05:50:19;;;;;;;2.72;2.50;;;2.10;99.90;;;;;;7379766;19;20909;-70
2022/04/11 05:52:45;;;;;;;4.55;2.70;;;2.20;99.90;;;;;;7381573;19;20326;-70
2022/04/11 05:55:12;;;;;;;3.65;2.63;;;2.30;99.90;;;;;;7379034;19;20307;-70
2022/04/11 05:57:40;;;;;;;3.67;2.85;;;2.40;99.90;;;;;;7381542;19;20317;-70
2022/04/11 06:00:11;;;;;;;4.88;2.90;;;2.50;99.90;;;;;;7377354;19;20326;-70
2022/04/11 06:02:40;;;;;;;5.43;2.70;;;2.60;99.90;;;;;;7379780;19;20315;-70
2022/04/11 06:05:09;;;;;;;3.80;2.65;;;2.70;99.90;;;;;;7379867;19;20322;-69
2022/04/11 06:07:35;;;;;;;3.92;2.83;;;2.80;99.90;;;;;;7378519;19;20368;-69
2022/04/11 06:10:01;;;;;;;3.78;3.38;;;2.90;99.90;;;;;;7377920;19;21278;-71
2022/04/11 06:12:28;;;;;;;4.15;3.58;;;2.90;99.90;;;;;;7379944;19;20661;-71
2022/04/11 06:14:54;;;;;;;4.90;2.90;;;3.00;99.90;;;;;;7379834;19;20321;-71
2022/04/11 06:17:23;;;;;;;3.47;3.13;;;3.10;99.90;;;;;;7379630;19;20308;-70
2022/04/11 06:19:50;;;;;;;3.83;2.97;;;3.20;99.90;;;;;;7378283;19;20651;-71
2022/04/11 06:22:17;;;;;;;6.00;2.67;;;3.30;99.90;;;;;;7378168;19;20293;-71
2022/04/11 06:24:48;;;;;;;4.53;2.65;;;3.40;99.90;;;;;;7377937;19;20427;-71
2022/04/11 06:27:14;;;;;;;3.80;2.50;;;3.50;99.90;;;;;;7376540;19;20663;-71
2022/04/11 06:29:41;;;;;;;3.33;2.50;;;3.60;99.90;;;;;;7378432;19;20337;-71
2022/04/11 06:32:07;;;;;;;3.37;2.50;;;3.70;99.90;;;;;;7375901;19;20317;-71
2022/04/11 06:34:38;;;;;;;8.18;5.90;;;3.80;99.90;;;;;;7383652;19;20348;-71
2022/04/11 06:37:04;;;;;;;2.95;2.03;;;3.90;99.90;;;;;;7380907;19;20331;-70
2022/04/11 06:39:30;;;;;;;4.43;2.65;;;4.00;99.90;;;;;;7378540;19;20665;-71
2022/04/11 06:41:57;;;;;;;3.63;2.25;;;4.20;99.90;;;;;;7375920;19;21134;-71
2022/04/11 06:44:24;;;;;;;4.00;2.72;;;4.30;99.90;;;;;;7379113;19;20790;-71
2022/04/11 06:46:56;;;;;;;2.83;2.38;;;4.40;99.90;;;;;;7273671;19;2004570;-72
2022/04/11 06:49:24;;;;;;;2.88;2.22;;;4.40;99.90;;;;;;7379384;19;20404;-73
2022/04/11 06:51:50;;;;;;;3.00;2.27;;;4.50;99.90;;;;;;7379614;19;20372;-73
2022/04/11 06:54:15;;;;;;;2.55;2.35;;;4.60;99.90;;;;;;7378701;19;20334;-73
2022/04/11 06:56:41;;;;;;;2.63;2.37;;;4.70;99.90;;;;;;7378243;19;20940;-73
2022/04/11 06:59:06;;;;;;;3.55;2.10;;;4.70;99.90;;;;;;7377394;19;20341;-73
2022/04/11 07:01:32;;;;;;;2.80;2.30;;;4.80;99.90;;;;;;7375847;19;20400;-73
2022/04/11 07:03:58;;;;;;;3.50;2.20;;;4.80;99.90;;;;;;7377907;19;20652;-73
2022/04/11 07:06:23;;;;;;;5.70;2.65;;;4.90;99.90;;;;;;7376494;19;20332;-73
2022/04/11 07:08:49;;;;;;;3.90;2.30;;;5.00;99.90;;;;;;7370361;19;20370;-73
2022/04/11 07:11:15;;;;;;;2.53;2.33;;;5.10;99.90;;;;;;7377409;19;20888;-73
2022/04/11 07:13:40;;;;;;;4.13;2.47;;;5.30;99.90;;;;;;7373487;19;20317;-73
2022/04/11 07:16:06;;;;;;;3.05;2.65;;;5.40;99.90;;;;;;7375786;19;20346;-73
2022/04/11 07:18:33;;;;;;;4.63;2.45;;;5.30;99.90;;;;;;7373182;19;20937;-73
2022/04/11 07:21:00;;;;;;;5.43;2.50;;;5.50;99.90;;;;;;7370803;19;20316;-73
2022/04/11 07:23:25;;;;;;;2.65;2.42;;;5.50;99.90;;;;;;7370269;19;21188;-73
2022/04/11 07:25:51;;;;;;;6.47;2.65;;;5.70;99.90;;;;;;7370849;19;20336;-73
2022/04/11 07:28:17;;;;;;;3.43;2.70;;;5.80;99.90;;;;;;7371893;19;20309;-72
2022/04/11 07:30:43;;;;;;;3.97;2.58;;;5.90;99.90;;;;;;7375906;19;20336;-73
2022/04/11 07:33:09;;;;;;;4.05;2.67;;;6.00;99.90;;;;;;7376812;19;20365;-73
2022/04/11 07:35:35;;;;;;;3.50;2.90;;;6.10;99.90;;;;;;7375842;19;20905;-73
2022/04/11 07:38:01;;;;;;;2.85;2.40;;;6.20;99.90;;;;;;7376070;19;20994;-73
2022/04/11 07:40:30;;;;;;;4.35;2.50;;;6.30;99.90;;;;;;7374214;19;20300;-73
2022/04/11 07:42:55;;;;;;;4.57;3.07;;;6.50;99.90;;;;;;7375880;19;21098;-73
2022/04/11 07:45:21;;;;;;;5.73;2.70;;;6.50;99.90;;;;;;7372390;19;20536;-73
2022/04/11 07:47:47;;;;;;;2.85;2.20;;;6.60;99.90;;;;;;7374602;19;20316;-74
2022/04/11 07:50:13;;;;;;;2.77;2.40;;;6.70;99.90;;;;;;7374206;19;20344;-72
2022/04/11 07:52:42;;;;;;;2.80;2.10;;;6.70;99.90;;;;;;7376818;19;20320;-72
2022/04/11 07:55:09;;;;;;;2.83;2.10;;;6.90;99.90;;;;;;7377417;19;20396;-73
2022/04/11 07:57:34;;;;;;;2.88;2.30;;;7.20;99.90;;;;;;7376826;19;20656;-73
2022/04/11 08:00:00;;;;;;;3.53;2.10;;;7.30;99.90;;;;;;7376318;19;20331;-73
2022/04/11 08:02:26;;;;;;;3.30;1.83;;;7.30;99.90;;;;;;7371879;19;20309;-73
2022/04/11 08:04:52;;;;;;;2.25;2.05;;;7.40;99.90;;;;;;7374385;19;20383;-73
2022/04/11 08:07:18;;;;;;;3.30;2.38;;;7.50;99.90;;;;;;7375144;19;20339;-72
2022/04/11 08:09:44;;;;;;;3.42;1.85;;;7.50;99.90;;;;;;7374769;19;20316;-73
2022/04/11 08:12:10;;;;;;;3.92;1.90;;;7.50;99.90;;;;;;7373430;19;20300;-73
2022/04/11 08:14:35;;;;;;;1.77;1.67;;;7.60;99.90;;;;;;7371818;19;20305;-73
2022/04/11 08:17:03;;;;;;;2.45;1.80;;;7.50;99.90;;;;;;7372948;19;20349;-73
2022/04/11 08:19:31;;;;;;;2.22;1.67;;;7.50;99.90;;;;;;7373106;19;21246;-74
2022/04/11 08:21:57;;;;;;;2.58;1.83;;;7.70;99.90;;;;;;7369738;19;20324;-73
2022/04/11 08:24:23;;;;;;;2.33;1.80;;;7.90;99.90;;;;;;7367830;19;20313;-73
2022/04/11 08:26:49;;;;;;;2.85;1.80;;;7.70;99.90;;;;;;7365937;19;20416;-73
2022/04/11 08:29:15;;;;;;;2.33;1.85;;;7.70;99.90;;;;;;7372125;19;20415;-73
2022/04/11 08:31:40;;;;;;;1.67;1.57;;;7.80;99.90;;;;;;7369104;19;21382;-73
2022/04/11 08:34:06;;;;;;;2.42;1.80;;;7.90;99.90;;;;;;7373847;19;20324;-73
2022/04/11 08:36:31;;;;;;;2.30;1.70;;;8.00;99.90;;;;;;7373821;19;20319;-73
2022/04/11 08:38:57;;;;;;;2.20;1.70;;;8.10;99.90;;;;;;7374788;19;20682;-74
2022/04/11 08:41:23;;;;;;;2.17;2.00;;;8.10;99.90;;;;;;7371402;19;20301;-72
2022/04/11 08:43:48;;;;;;;3.20;1.90;;;8.20;99.90;;;;;;7371171;19;20344;-73
2022/04/11 08:46:16;;;;;;;1.50;1.40;;;8.30;99.90;;;;;;7370543;19;20308;-72
2022/04/11 08:48:42;;;;;;;2.42;1.65;;;8.30;99.90;;;;;;7373812;19;20344;-73
2022/04/11 08:51:08;;;;;;;1.83;1.30;;;8.40;99.90;;;;;;7372592;19;20333;-73
2022/04/11 08:53:34;;;;;;;2.30;1.60;;;8.50;99.90;;;;;;7370750;19;20324;-73
2022/04/11 08:56:00;;;;;;;1.65;1.55;;;8.50;99.90;;;;;;7376643;19;20893;-72
2022/04/11 08:58:25;;;;;;;1.70;1.57;;;8.40;99.90;;;;;;7376083;19;20333;-73
2022/04/11 09:00:51;;;;;;;2.28;1.60;;;8.70;99.90;;;;;;7370240;19;20832;-73
2022/04/11 09:03:16;;;;;;;1.77;1.30;;;8.60;99.90;;;;;;7380046;19;21146;-73
2022/04/11 09:05:42;;;;;;;2.40;1.50;;;8.70;99.90;;;;;;7376141;19;20337;-73
2022/04/11 09:08:08;;;;;;;1.07;0.97;;;8.90;99.90;;;;;;7384597;19;20844;-73
2022/04/11 09:10:37;;;;;;;1.33;1.20;;;9.00;99.90;;;;;;7378021;19;20759;-73
2022/04/11 09:13:07;;;;;;;1.20;1.05;;;8.70;99.90;;;;;;7379590;19;20320;-73
2022/04/11 09:15:40;;;;;;;1.20;1.02;;;8.80;99.90;;;;;;7379676;19;20320;-73
2022/04/11 09:18:06;;;;;;;2.20;1.20;;;8.70;99.90;;;;;;7382310;19;20321;-73
2022/04/11 09:20:31;;;;;;;1.20;1.10;;;8.80;99.90;;;;;;7378142;19;20361;-72
2022/04/11 09:22:57;;;;;;;2.47;1.15;;;8.90;99.90;;;;;;7381260;19;20331;-73
2022/04/11 09:25:32;;;;;;;1.48;1.27;;;9.20;99.90;;;;;;7378456;19;20344;-72
2022/04/11 09:28:06;;;;;;;1.77;1.00;;;9.10;99.90;;;;;;7380484;19;20344;-73
2022/04/11 09:30:32;;;;;;;1.15;1.10;;;9.30;99.90;;;;;;7378986;19;20400;-73
2022/04/11 09:32:58;;;;;;;1.40;1.15;;;9.20;99.90;;;;;;7379004;19;20388;-73
2022/04/11 09:35:25;;;;;;;0.80;0.80;;;9.40;99.90;;;;;;7379693;19;20347;-73
2022/04/11 09:38:16;;;;;;;2.40;1.20;;;9.50;99.90;;;;;;7379637;19;20360;-73
2022/04/11 09:40:55;;;;;;;1.35;1.23;;;9.30;99.90;;;;;;7274967;19;2004314;-73
2022/04/11 09:43:30;;;;;;;0.85;0.85;;;9.50;99.90;;;;;;7277638;19;2004325;-72
2022/04/11 09:45:57;;;;;;;1.27;0.90;;;9.60;99.90;;;;;;7275283;19;2004665;-73
2022/04/11 09:48:29;;;;;;;2.47;2.00;;;9.70;99.90;;;;;;7376643;19;20328;-74
2022/04/11 09:50:56;;;;;;;1.20;1.10;;;10.00;99.90;;;;;;7378053;19;20756;-72
2022/04/11 09:53:23;;;;;;;0.82;0.80;;;10.00;98.90;;;;;;7379702;19;20841;-72
2022/04/11 09:55:53;;;;;;;1.20;0.90;;;10.20;99.70;;;;;;7375875;19;20843;-72
2022/04/11 09:58:19;;;;;;;1.23;1.13;;;10.30;99.90;;;;;;7385523;19;20320;-73
2022/04/11 10:00:45;;;;;;;1.25;1.00;;;10.50;96.70;;;;;;7381543;19;20416;-72
2022/04/11 10:03:11;;;;;;;2.40;1.05;;;10.40;98.80;;;;;;7380664;19;20411;-73
2022/04/11 10:05:38;;;;;;;1.00;1.00;;;10.60;97.80;;;;;;7375769;19;20345;-72
2022/04/11 10:08:05;;;;;;;1.20;1.10;;;10.60;96.00;;;;;;7378771;19;20340;-73
2022/04/11 10:10:34;;;;;;;1.38;1.27;;;10.70;95.10;;;;;;7377273;19;20444;-74
2022/04/11 10:13:00;;;;;;;1.10;1.10;;;11.00;95.60;;;;;;7373332;19;20353;-72
2022/04/11 10:15:25;;;;;;;1.10;1.00;;;11.00;93.60;;;;;;7375707;19;20317;-72
2022/04/11 10:17:52;;;;;;;1.05;1.05;;;11.00;95.00;;;;;;7375935;19;20353;-73
2022/04/11 10:20:28;;;;;;;2.00;1.10;;;11.30;94.70;;;;;;7376283;19;21301;-73
2022/04/11 10:23:09;;;;;;;1.38;1.05;;;11.10;91.60;;;;;;7376361;19;20381;-74
2022/04/11 10:25:38;;;;;;;1.27;1.20;;;11.10;94.20;;;;;;7374853;19;20332;-73
2022/04/11 10:28:16;;;;;;;1.23;1.13;;;11.20;94.00;;;;;;7377123;19;20323;-73
2022/04/11 10:30:43;;;;;;;1.20;1.10;;;10.90;94.30;;;;;;7273060;19;2004380;-73
2022/04/11 10:33:08;;;;;;;1.45;1.25;;;10.90;94.80;;;;;;7377461;19;20305;-73
2022/04/11 10:35:42;;;;;;;2.97;1.23;;;10.70;90.70;;;;;;7373409;19;20321;-72
2022/04/11 10:38:10;;;;;;;1.33;1.23;;;11.30;93.60;;;;;;7376121;19;20384;-72
2022/04/11 10:40:37;;;;;;;1.83;1.20;;;11.10;90.30;;;;;;7371645;19;20341;-73
2022/04/11 10:45:36;;;;;;;2.05;1.40;;;11.60;92.80;;;;;;7373045;19;20957;-73
2022/04/11 10:48:02;;;;;;;1.57;1.23;;;11.80;91.90;;;;;;7376751;19;20312;-73
2022/04/11 10:50:41;;;;;;;1.40;1.30;;;11.40;92.00;;;;;;7375565;19;20791;-73
2022/04/11 10:53:08;;;;;;;2.08;1.17;;;11.90;91.40;;;;;;7376410;19;20328;-72
2022/04/11 10:55:35;;;;;;;1.33;1.15;;;12.10;87.70;;;;;;7373024;19;20339;-73
2022/04/11 10:58:00;;;;;;;1.10;1.10;;;11.90;85.90;;;;;;7375163;19;20324;-73
2022/04/11 11:00:27;;;;;;;1.47;1.20;;;11.70;89.20;;;;;;7377758;19;20411;-71
2022/04/11 11:02:53;;;;;;;1.40;1.30;;;11.60;90.00;;;;;;7375582;19;21202;-73
2022/04/11 11:05:40;;;;;;;1.92;1.40;;;11.90;89.00;;;;;;7375186;19;20349;-73
2022/04/11 11:08:12;;;;;;;1.38;1.27;;;11.60;88.90;;;;;;7274813;19;2004488;-73
2022/04/11 11:10:51;;;;;;;2.20;1.20;;;11.70;90.10;;;;;;7375853;19;20940;-72
2022/04/11 11:13:36;;;;;;;2.13;1.17;;;11.40;87.40;;;;;;7376000;19;20312;-71
2022/04/11 11:16:08;;;;;;;1.52;1.20;;;11.10;89.40;;;;;;7375009;19;20345;-71
2022/04/11 11:18:48;;;;;;;1.98;1.33;;;11.40;90.30;;;;;;7378312;19;20983;-71
2022/04/11 11:21:21;;;;;;;1.30;1.20;;;11.80;87.00;;;;;;7377369;19;20415;-72
2022/04/11 11:24:04;;;;;;;1.30;1.13;;;11.80;89.60;;;;;;7372444;19;20336;-71
2022/04/11 11:26:52;;;;;;;1.50;1.30;;;11.60;83.80;;;;;;7377778;19;20428;-73
2022/04/11 11:29:23;;;;;;;1.73;1.00;;;11.50;84.30;;;;;;7372528;19;20416;-72
2022/04/11 11:31:50;;;;;;;1.58;1.27;;;12.10;83.40;;;;;;7375847;19;20316;-71
2022/04/11 11:34:17;;;;;;;3.20;1.23;;;12.40;84.30;;;;;;7376783;19;20324;-72
2022/04/11 11:36:43;;;;;;;1.30;1.20;;;12.60;82.40;;;;;;7382059;19;20344;-72
2022/04/11 11:39:19;;;;;;;1.35;1.25;;;12.20;83.50;;;;;;7378433;19;20308;-72
2022/04/11 11:42:04;;;;;;;1.10;1.10;;;12.10;81.90;;;;;;7374820;19;20324;-73
2022/04/11 11:44:30;;;;;;;1.00;1.00;;;11.30;81.00;;;;;;7377883;19;20900;-73
2022/04/11 11:46:58;;;;;;;3.72;1.40;;;11.20;83.70;;;;;;7374515;19;20333;-72
2022/04/11 11:49:24;;;;;;;1.30;1.20;;;11.30;83.70;;;;;;7376930;19;20735;-72
2022/04/11 11:51:51;;;;;;;1.23;1.13;;;11.30;83.50;;;;;;7373951;19;20325;-72
2022/04/11 11:54:36;;;;;;;1.33;1.20;;;11.90;88.00;;;;;;7376774;19;21107;-72
2022/04/11 11:57:02;;;;;;;1.30;1.20;;;11.90;83.20;;;;;;7374810;19;20332;-72
2022/04/11 11:59:28;;;;;;;1.40;1.30;;;12.00;83.30;;;;;;7379241;19;20297;-72
2022/04/11 12:04:39;;;;;;;1.77;1.40;;;11.60;82.40;;;;;;7275965;19;2004261;-72
2022/04/11 12:07:05;;;;;;;1.80;1.20;;;11.60;82.40;;;;;;7375859;19;21119;-72
2022/04/11 12:09:38;;;;;;;1.03;1.03;;;11.60;82.30;;;;;;7376145;19;20324;-72
2022/04/11 12:12:04;;;;;;;1.90;1.50;;;12.00;82.20;;;;;;7372581;19;20312;-72
2022/04/11 12:14:50;;;;;;;1.83;1.23;;;12.50;84.60;;;;;;7377298;19;20301;-72
2022/04/11 12:17:16;;;;;;;1.17;1.10;;;12.10;80.10;;;;;;7274169;19;2004442;-72
2022/04/11 12:19:42;;;;;;;1.35;1.25;;;12.30;83.80;;;;;;7376094;19;20305;-73
2022/04/11 12:22:13;;;;;;;1.63;1.13;;;12.00;78.10;;;;;;7375613;19;20982;-72
2022/04/11 12:24:39;;;;;;;1.40;1.30;;;11.80;77.80;;;;;;7376976;19;20311;-71
2022/04/11 12:27:06;;;;;;;1.33;1.20;;;11.80;82.80;;;;;;7374431;19;20312;-72
2022/04/11 12:29:39;;;;;;;2.37;1.47;;;11.70;80.60;;;;;;7376878;19;20326;-71
2022/04/11 12:32:10;;;;;;;3.40;1.58;;;11.90;81.40;;;;;;7372029;19;20332;-72
2022/04/11 12:34:38;;;;;;;1.70;1.60;;;12.60;83.60;;;;;;7375462;19;20332;-71
2022/04/11 12:37:08;;;;;;;1.50;1.40;;;13.20;79.80;;;;;;7378184;19;20321;-72
2022/04/11 12:39:56;;;;;;;2.80;1.48;;;13.50;79.10;;;;;;7380026;19;20328;-72
2022/04/11 12:42:23;;;;;;;1.57;1.43;;;14.10;83.30;;;;;;7278975;19;2004331;-72
2022/04/11 12:44:48;;;;;;;1.30;1.13;;;14.70;83.00;;;;;;7380480;19;20428;-73
2022/04/11 12:47:14;;;;;;;1.63;1.20;;;14.70;78.10;;;;;;7379923;19;20404;-72
2022/04/11 12:49:44;;;;;;;1.50;1.27;;;14.60;73.70;;;;;;7382303;19;20384;-72
2022/04/11 12:52:10;;;;;;;3.50;1.40;;;15.70;81.20;;;;;;7378935;19;20309;-72
2022/04/11 12:54:45;;;;;;;1.50;1.40;;;15.60;72.10;;;;;;7380472;19;20333;-72
2022/04/11 12:57:12;;;;;;;1.60;1.50;;;15.50;71.00;;;;;;7380612;19;20323;-72
2022/04/11 12:59:41;;;;;;;1.30;1.20;;;14.20;71.00;;;;;;7385890;19;20305;-73
2022/04/11 13:02:14;;;;;;;1.50;1.40;;;14.10;72.40;;;;;;7380489;19;20749;-72